sensor_id;sensor_type;location;lat;lon;timestamp;temperature;humidity
41168;DHT22;26906;45.658;9.272;2022-10-16T05:32:09;17.90;99.90
41168;DHT22;26906;45.658;9.272;2022-10-16T05:34:36;17.90;99.90
41168;DHT22;26906;45.658;9.272;2022-10-16T05:37:03;17.90;99.90
41168;DHT22;26906;45.658;9.272;2022-10-16T05:39:28;17.90;99.90
41168;DHT22;26906;45.658;9.272;2022-10-16T05:41:54;17.90;99.90
41168;DHT22;26906;45.658;9.272;2022-10-16T05:44:20;18.00;99.90
41168;DHT22;26906;45.658;9.272;2022-10-16T05:46:47;18.00;99.90
41168;DHT22;26906;45.658;9.272;2022-10-16T05:49:13;18.00;99.90
41168;DHT22;26906;45.658;9.272;2022-10-16T05:51:40;17.90;99.90
41168;DHT22;26906;45.658;9.272;2022-10-16T05:54:07;17.90;99.90
41168;DHT22;26906;45.658;9.272;2022-10-16T05:56:33;17.90;99.90
41168;DHT22;26906;45.658;9.272;2022-10-16T05:58:58;17.90;99.90
41168;DHT22;26906;45.658;9.272;2022-10-16T06:01:24;17.90;99.90
41168;DHT22;26906;45.658;9.272;2022-10-16T06:03:51;18.00;99.90
41168;DHT22;26906;45.658;9.272;2022-10-16T06:06:22;18.00;99.90
41168;DHT22;26906;45.658;9.272;2022-10-16T06:08:51;18.00;99.90
41168;DHT22;26906;45.658;9.272;2022-10-16T06:11:27;18.00;99.90
41168;DHT22;26906;45.658;9.272;2022-10-16T06:13:56;18.10;99.90
41168;DHT22;26906;45.658;9.272;2022-10-16T06:16:23;18.00;99.90
41168;DHT22;26906;45.658;9.272;2022-10-16T06:18:51;18.10;99.90
41168;DHT22;26906;45.658;9.272;2022-10-16T06:21:20;18.00;99.90
41168;DHT22;26906;45.658;9.272;2022-10-16T06:23:46;18.10;99.90
41168;DHT22;26906;45.658;9.272;2022-10-16T06:26:14;18.10;99.90
41168;DHT22;26906;45.658;9.272;2022-10-16T06:28:43;18.10;99.90
41168;DHT22;26906;45.658;9.272;2022-10-16T06:31:10;18.20;99.90
41168;DHT22;26906;45.658;9.272;2022-10-16T06:33:36;18.20;99.90
41168;DHT22;26906;45.658;9.272;2022-10-16T06:36:13;18.20;99.90
41168;DHT22;26906;45.658;9.272;2022-10-16T06:38:44;18.30;99.90
41168;DHT22;26906;45.658;9.272;2022-10-16T06:41:13;18.30;99.90
41168;DHT22;26906;45.658;9.272;2022-10-16T06:43:39;18.30;99.90
41168;DHT22;26906;45.658;9.272;2022-10-16T06:46:07;18.30;99.90
41168;DHT22;26906;45.658;9.272;2022-10-16T06:48:33;18.30;99.90
41168;DHT22;26906;45.658;9.272;2022-10-16T06:53:32;18.40;99.90
41168;DHT22;26906;45.658;9.272;2022-10-16T06:56:05;18.50;99.90
41168;DHT22;26906;45.658;9.272;2022-10-16T06:58:34;18.60;99.90
41168;DHT22;26906;45.658;9.272;2022-10-16T07:01:04;18.50;99.90
41168;DHT22;26906;45.658;9.272;2022-10-16T07:03:30;18.60;99.90
41168;DHT22;26906;45.658;9.272;2022-10-16T07:06:03;18.60;99.90
41168;DHT22;26906;45.658;9.272;2022-10-16T07:08:31;18.70;99.90
41168;DHT22;26906;45.658;9.272;2022-10-16T07:10:59;18.80;99.90
41168;DHT22;26906;45.658;9.272;2022-10-16T07:13:26;18.70;99.90
41168;DHT22;26906;45.658;9.272;2022-10-16T07:15:53;18.70;99.90
41168;DHT22;26906;45.658;9.272;2022-10-16T07:18:19;18.70;99.90
41168;DHT22;26906;45.658;9.272;2022-10-16T07:20:44;18.80;99.90
41168;DHT22;26906;45.658;9.272;2022-10-16T07:23:15;18.80;99.90
41168;DHT22;26906;45.658;9.272;2022-10-16T07:25:40;18.90;99.90
41168;DHT22;26906;45.658;9.272;2022-10-16T07:28:06;19.00;99.90
41168;DHT22;26906;45.658;9.272;2022-10-16T07:30:35;19.10;99.90
41168;DHT22;26906;45.658;9.272;2022-10-16T07:33:02;19.00;99.90
41168;DHT22;26906;45.658;9.272;2022-10-16T07:35:28;19.10;99.90
41168;DHT22;26906;45.658;9.272;2022-10-16T07:37:54;19.20;99.90
41168;DHT22;26906;45.658;9.272;2022-10-16T07:40:20;19.30;99.90
41168;DHT22;26906;45.658;9.272;2022-10-16T07:42:46;19.30;99.90
41168;DHT22;26906;45.658;9.272;2022-10-16T07:45:15;19.30;99.90
41168;DHT22;26906;45.658;9.272;2022-10-16T07:47:41;19.40;99.90
41168;DHT22;26906;45.658;9.272;2022-10-16T07:50:07;19.40;99.90
41168;DHT22;26906;45.658;9.272;2022-10-16T07:52:32;19.60;99.90
41168;DHT22;26906;45.658;9.272;2022-10-16T07:54:58;19.60;99.90
41168;DHT22;26906;45.658;9.272;2022-10-16T07:57:25;19.70;99.90
41168;DHT22;26906;45.658;9.272;2022-10-16T07:59:51;19.80;99.90
41168;DHT22;26906;45.658;9.272;2022-10-16T08:02:16;19.90;99.90
41168;DHT22;26906;45.658;9.272;2022-10-16T08:04:42;20.00;99.90
41168;DHT22;26906;45.658;9.272;2022-10-16T08:07:08;20.10;99.90
41168;DHT22;26906;45.658;9.272;2022-10-16T08:09:34;20.40;99.90
41168;DHT22;26906;45.658;9.272;2022-10-16T08:12:01;20.50;99.90
41168;DHT22;26906;45.658;9.272;2022-10-16T08:14:27;20.40;99.90
41168;DHT22;26906;45.658;9.272;2022-10-16T08:16:53;20.40;99.90
41168;DHT22;26906;45.658;9.272;2022-10-16T08:19:19;20.50;99.90
41168;DHT22;26906;45.658;9.272;2022-10-16T08:21:47;20.60;99.90
41168;DHT22;26906;45.658;9.272;2022-10-16T08:24:13;20.80;99.90
41168;DHT22;26906;45.658;9.272;2022-10-16T08:26:38;21.00;99.90
41168;DHT22;26906;45.658;9.272;2022-10-16T08:29:04;21.10;99.90
41168;DHT22;26906;45.658;9.272;2022-10-16T08:31:36;21.20;99.90
41168;DHT22;26906;45.658;9.272;2022-10-16T08:34:02;21.40;99.90
41168;DHT22;26906;45.658;9.272;2022-10-16T08:36:27;21.60;99.90
41168;DHT22;26906;45.658;9.272;2022-10-16T08:38:54;21.70;99.90
41168;DHT22;26906;45.658;9.272;2022-10-16T08:44:41;21.90;99.90
41168;DHT22;26906;45.658;9.272;2022-10-16T08:47:22;22.00;99.90
41168;DHT22;26906;45.658;9.272;2022-10-16T08:50:01;22.20;99.90
41168;DHT22;26906;45.658;9.272;2022-10-16T08:52:30;22.20;99.90
41168;DHT22;26906;45.658;9.272;2022-10-16T08:54:58;22.20;99.90
41168;DHT22;26906;45.658;9.272;2022-10-16T08:57:25;22.20;99.90
41168;DHT22;26906;45.658;9.272;2022-10-16T08:59:55;22.10;99.90
41168;DHT22;26906;45.658;9.272;2022-10-16T09:02:38;22.10;99.90
41168;DHT22;26906;45.658;9.272;2022-10-16T09:13:29;22.50;99.90
41168;DHT22;26906;45.658;9.272;2022-10-16T09:16:30;22.60;99.90
41168;DHT22;26906;45.658;9.272;2022-10-16T09:21:37;23.00;99.90
41168;DHT22;26906;45.658;9.272;2022-10-16T09:24:15;22.90;99.90
41168;DHT22;26906;45.658;9.272;2022-10-16T09:26:41;22.60;99.90
41168;DHT22;26906;45.658;9.272;2022-10-16T09:29:12;22.60;99.90
41168;DHT22;26906;45.658;9.272;2022-10-16T09:31:38;22.40;99.90
41168;DHT22;26906;45.658;9.272;2022-10-16T09:34:05;22.30;99.90
41168;DHT22;26906;45.658;9.272;2022-10-16T09:36:45;22.20;99.90
41168;DHT22;26906;45.658;9.272;2022-10-16T09:39:12;22.20;99.90
41168;DHT22;26906;45.658;9.272;2022-10-16T09:41:41;22.10;99.90
41168;DHT22;26906;45.658;9.272;2022-10-16T09:44:28;22.30;99.90
41168;DHT22;26906;45.658;9.272;2022-10-16T09:47:16;22.50;99.90
41168;DHT22;26906;45.658;9.272;2022-10-16T09:49:55;22.40;99.90
41168;DHT22;26906;45.658;9.272;2022-10-16T09:52:21;22.30;99.90
41168;DHT22;26906;45.658;9.272;2022-10-16T09:54:57;22.40;99.90
41168;DHT22;26906;45.658;9.272;2022-10-16T09:57:25;22.70;99.90
41168;DHT22;26906;45.658;9.272;2022-10-16T09:59:53;22.70;99.90
41168;DHT22;26906;45.658;9.272;2022-10-16T10:02:35;22.70;99.90
41168;DHT22;26906;45.658;9.272;2022-10-16T10:05:04;22.90;99.90
41168;DHT22;26906;45.658;9.272;2022-10-16T10:08:01;23.00;99.90
41168;DHT22;26906;45.658;9.272;2022-10-16T10:10:41;23.10;99.90
41168;DHT22;26906;45.658;9.272;2022-10-16T10:13:22;23.10;99.90
41168;DHT22;26906;45.658;9.272;2022-10-16T10:15:50;23.00;99.90
41168;DHT22;26906;45.658;9.272;2022-10-16T10:18:19;22.80;99.90
41168;DHT22;26906;45.658;9.272;2022-10-16T10:21:00;22.80;99.90
41168;DHT22;26906;45.658;9.272;2022-10-16T10:23:29;22.90;99.90
41168;DHT22;26906;45.658;9.272;2022-10-16T10:31:14;23.10;99.90
41168;DHT22;26906;45.658;9.272;2022-10-16T10:38:58;23.40;99.90
41168;DHT22;26906;45.658;9.272;2022-10-16T10:44:15;23.50;99.90
41168;DHT22;26906;45.658;9.272;2022-10-16T10:46:50;23.30;99.90
41168;DHT22;26906;45.658;9.272;2022-10-16T10:57:39;23.60;99.90
41168;DHT22;26906;45.658;9.272;2022-10-16T11:05:49;23.70;99.90
41168;DHT22;26906;45.658;9.272;2022-10-16T11:08:21;23.70;99.90
41168;DHT22;26906;45.658;9.272;2022-10-16T11:11:00;23.70;99.90
41168;DHT22;26906;45.658;9.272;2022-10-16T11:16:42;23.90;99.90
41168;DHT22;26906;45.658;9.272;2022-10-16T11:19:33;24.00;99.90
41168;DHT22;26906;45.658;9.272;2022-10-16T11:27:44;24.10;99.90
41168;DHT22;26906;45.658;9.272;2022-10-16T11:30:18;24.10;99.90
41168;DHT22;26906;45.658;9.272;2022-10-16T11:40:56;24.10;99.90
41168;DHT22;26906;45.658;9.272;2022-10-16T11:43:38;24.10;99.90
41168;DHT22;26906;45.658;9.272;2022-10-16T11:46:24;24.10;99.90
41168;DHT22;26906;45.658;9.272;2022-10-16T11:49:03;24.10;99.90
41168;DHT22;26906;45.658;9.272;2022-10-16T11:51:39;24.10;99.90
41168;DHT22;26906;45.658;9.272;2022-10-16T11:54:32;24.10;99.90
41168;DHT22;26906;45.658;9.272;2022-10-16T11:57:09;24.20;99.90
41168;DHT22;26906;45.658;9.272;2022-10-16T11:59:50;24.00;99.90
41168;DHT22;26906;45.658;9.272;2022-10-16T12:02:35;24.10;99.90
41168;DHT22;26906;45.658;9.272;2022-10-16T12:08:16;24.50;99.90
41168;DHT22;26906;45.658;9.272;2022-10-16T12:10:46;24.40;99.90
41168;DHT22;26906;45.658;9.272;2022-10-16T12:13:38;24.30;99.90
41168;DHT22;26906;45.658;9.272;2022-10-16T12:18:42;24.20;99.90
41168;DHT22;26906;45.658;9.272;2022-10-16T12:21:09;24.00;99.90
41168;DHT22;26906;45.658;9.272;2022-10-16T12:23:50;24.10;99.90
41168;DHT22;26906;45.658;9.272;2022-10-16T12:26:29;24.40;99.90
41168;DHT22;26906;45.658;9.272;2022-10-16T12:31:50;24.80;99.90
41168;DHT22;26906;45.658;9.272;2022-10-16T12:34:35;24.80;99.90
41168;DHT22;26906;45.658;9.272;2022-10-16T12:37:21;24.70;99.90
41168;DHT22;26906;45.658;9.272;2022-10-16T12:39:48;24.60;99.90
41168;DHT22;26906;45.658;9.272;2022-10-16T12:44:55;24.30;99.90
41168;DHT22;26906;45.658;9.272;2022-10-16T12:47:37;24.30;99.90
41168;DHT22;26906;45.658;9.272;2022-10-16T12:50:24;24.30;99.90
41168;DHT22;26906;45.658;9.272;2022-10-16T12:52:50;24.60;99.90
41168;DHT22;26906;45.658;9.272;2022-10-16T12:55:19;24.90;99.90
41168;DHT22;26906;45.658;9.272;2022-10-16T12:58:21;25.10;99.90
41168;DHT22;26906;45.658;9.272;2022-10-16T13:04:05;25.20;99.90
41168;DHT22;26906;45.658;9.272;2022-10-16T13:09:29;25.30;99.90
41168;DHT22;26906;45.658;9.272;2022-10-16T13:28:01;25.20;99.90
41168;DHT22;26906;45.658;9.272;2022-10-16T13:30:32;25.30;99.90
41168;DHT22;26906;45.658;9.272;2022-10-16T13:33:15;25.10;99.90
41168;DHT22;26906;45.658;9.272;2022-10-16T13:35:55;25.10;99.90
41168;DHT22;26906;45.658;9.272;2022-10-16T13:38:26;25.10;99.90
41168;DHT22;26906;45.658;9.272;2022-10-16T13:40:58;25.20;99.90
41168;DHT22;26906;45.658;9.272;2022-10-16T13:43:35;25.20;99.90
41168;DHT22;26906;45.658;9.272;2022-10-16T13:46:17;25.30;99.90
41168;DHT22;26906;45.658;9.272;2022-10-16T13:48:43;25.10;99.90
41168;DHT22;26906;45.658;9.272;2022-10-16T13:51:17;24.90;99.90
41168;DHT22;26906;45.658;9.272;2022-10-16T13:53:45;24.80;99.90
41168;DHT22;26906;45.658;9.272;2022-10-16T13:56:17;24.70;99.90
41168;DHT22;26906;45.658;9.272;2022-10-16T13:58:44;24.60;99.90
41168;DHT22;26906;45.658;9.272;2022-10-16T14:03:42;24.60;99.90
41168;DHT22;26906;45.658;9.272;2022-10-16T14:06:14;24.80;99.90
41168;DHT22;26906;45.658;9.272;2022-10-16T14:09:09;24.90;99.90
41168;DHT22;26906;45.658;9.272;2022-10-16T14:11:50;25.10;99.90
41168;DHT22;26906;45.658;9.272;2022-10-16T14:14:19;25.10;99.90
41168;DHT22;26906;45.658;9.272;2022-10-16T14:16:46;25.10;99.90
41168;DHT22;26906;45.658;9.272;2022-10-16T14:19:24;25.10;99.90
41168;DHT22;26906;45.658;9.272;2022-10-16T14:21:53;25.00;99.90
41168;DHT22;26906;45.658;9.272;2022-10-16T14:24:34;25.10;99.90
41168;DHT22;26906;45.658;9.272;2022-10-16T14:27:01;24.80;99.90
41168;DHT22;26906;45.658;9.272;2022-10-16T14:29:28;24.70;99.90
41168;DHT22;26906;45.658;9.272;2022-10-16T14:32:04;24.60;99.90
41168;DHT22;26906;45.658;9.272;2022-10-16T14:34:39;24.50;99.90
41168;DHT22;26906;45.658;9.272;2022-10-16T14:37:20;24.50;99.90
41168;DHT22;26906;45.658;9.272;2022-10-16T14:39:52;24.50;99.90
41168;DHT22;26906;45.658;9.272;2022-10-16T14:42:20;24.60;99.90
41168;DHT22;26906;45.658;9.272;2022-10-16T14:44:47;24.60;99.90
41168;DHT22;26906;45.658;9.272;2022-10-16T14:47:16;24.60;99.90
41168;DHT22;26906;45.658;9.272;2022-10-16T14:49:47;24.50;99.90
41168;DHT22;26906;45.658;9.272;2022-10-16T14:52:17;24.70;99.90
41168;DHT22;26906;45.658;9.272;2022-10-16T14:54:43;24.60;99.90
41168;DHT22;26906;45.658;9.272;2022-10-16T14:57:20;24.60;99.90
41168;DHT22;26906;45.658;9.272;2022-10-16T14:59:47;24.50;99.90
41168;DHT22;26906;45.658;9.272;2022-10-16T15:02:33;24.40;99.90
41168;DHT22;26906;45.658;9.272;2022-10-16T15:05:20;24.30;99.90
41168;DHT22;26906;45.658;9.272;2022-10-16T15:07:47;24.30;99.90
41168;DHT22;26906;45.658;9.272;2022-10-16T15:10:15;24.30;99.90
41168;DHT22;26906;45.658;9.272;2022-10-16T15:12:41;24.20;99.90
41168;DHT22;26906;45.658;9.272;2022-10-16T15:17:53;24.30;99.90
41168;DHT22;26906;45.658;9.272;2022-10-16T15:20:22;24.20;99.90
41168;DHT22;26906;45.658;9.272;2022-10-16T15:22:47;24.20;99.90
41168;DHT22;26906;45.658;9.272;2022-10-16T15:27:54;24.20;99.90
41168;DHT22;26906;45.658;9.272;2022-10-16T15:30:29;24.20;99.90
41168;DHT22;26906;45.658;9.272;2022-10-16T15:32:55;24.20;99.90
41168;DHT22;26906;45.658;9.272;2022-10-16T15:35:21;24.00;99.90
41168;DHT22;26906;45.658;9.272;2022-10-16T15:37:48;23.90;99.90
41168;DHT22;26906;45.658;9.272;2022-10-16T15:40:17;23.90;99.90
41168;DHT22;26906;45.658;9.272;2022-10-16T15:42:43;23.90;99.90
41168;DHT22;26906;45.658;9.272;2022-10-16T15:45:10;23.70;99.90
41168;DHT22;26906;45.658;9.272;2022-10-16T15:47:36;23.60;99.90
41168;DHT22;26906;45.658;9.272;2022-10-16T15:50:04;23.50;99.90
41168;DHT22;26906;45.658;9.272;2022-10-16T15:52:31;23.40;99.90
41168;DHT22;26906;45.658;9.272;2022-10-16T15:54:58;23.30;99.90
41168;DHT22;26906;45.658;9.272;2022-10-16T15:57:27;23.30;99.90
41168;DHT22;26906;45.658;9.272;2022-10-16T15:59:53;23.30;99.90
41168;DHT22;26906;45.658;9.272;2022-10-16T16:02:20;23.30;99.90
41168;DHT22;26906;45.658;9.272;2022-10-16T16:04:46;23.30;99.90
41168;DHT22;26906;45.658;9.272;2022-10-16T16:07:12;23.20;99.90
41168;DHT22;26906;45.658;9.272;2022-10-16T16:09:38;23.00;99.90
41168;DHT22;26906;45.658;9.272;2022-10-16T16:12:04;23.00;99.90
41168;DHT22;26906;45.658;9.272;2022-10-16T16:14:30;22.90;99.90
41168;DHT22;26906;45.658;9.272;2022-10-16T16:16:57;22.80;99.90
41168;DHT22;26906;45.658;9.272;2022-10-16T16:19:23;22.80;99.90
41168;DHT22;26906;45.658;9.272;2022-10-16T16:21:49;22.60;99.90
41168;DHT22;26906;45.658;9.272;2022-10-16T16:24:15;22.50;99.90
41168;DHT22;26906;45.658;9.272;2022-10-16T16:26:41;22.40;99.90
41168;DHT22;26906;45.658;9.272;2022-10-16T16:29:12;22.30;99.90
41168;DHT22;26906;45.658;9.272;2022-10-16T16:31:40;22.20;99.90
41168;DHT22;26906;45.658;9.272;2022-10-16T16:34:07;22.20;99.90
41168;DHT22;26906;45.658;9.272;2022-10-16T16:36:33;22.10;99.90
41168;DHT22;26906;45.658;9.272;2022-10-16T16:38:59;22.00;99.90
41168;DHT22;26906;45.658;9.272;2022-10-16T16:41:29;21.90;99.90
41168;DHT22;26906;45.658;9.272;2022-10-16T16:44:07;21.70;99.90
41168;DHT22;26906;45.658;9.272;2022-10-16T16:46:34;21.60;99.90
41168;DHT22;26906;45.658;9.272;2022-10-16T16:49:03;21.60;99.90
41168;DHT22;26906;45.658;9.272;2022-10-16T16:51:29;21.50;99.90
41168;DHT22;26906;45.658;9.272;2022-10-16T16:53:55;21.40;99.90
41168;DHT22;26906;45.658;9.272;2022-10-16T16:56:22;21.40;99.90
41168;DHT22;26906;45.658;9.272;2022-10-16T16:58:50;21.30;99.90
41168;DHT22;26906;45.658;9.272;2022-10-16T17:01:16;21.30;99.90
41168;DHT22;26906;45.658;9.272;2022-10-16T17:03:43;21.20;99.90
41168;DHT22;26906;45.658;9.272;2022-10-16T17:06:10;21.20;99.90
41168;DHT22;26906;45.658;9.272;2022-10-16T17:08:37;21.10;99.90
41168;DHT22;26906;45.658;9.272;2022-10-16T17:11:04;21.20;99.90
41168;DHT22;26906;45.658;9.272;2022-10-16T17:13:32;21.20;99.90
41168;DHT22;26906;45.658;9.272;2022-10-16T17:16:06;21.20;99.90
41168;DHT22;26906;45.658;9.272;2022-10-16T17:18:33;21.10;99.90
41168;DHT22;26906;45.658;9.272;2022-10-16T17:21:03;21.10;99.90
41168;DHT22;26906;45.658;9.272;2022-10-16T17:23:34;21.10;99.90
41168;DHT22;26906;45.658;9.272;2022-10-16T17:26:09;21.10;99.90
41168;DHT22;26906;45.658;9.272;2022-10-16T17:28:36;21.00;99.90
41168;DHT22;26906;45.658;9.272;2022-10-16T17:31:22;20.80;99.90
41168;DHT22;26906;45.658;9.272;2022-10-16T17:33:48;20.70;99.90
41168;DHT22;26906;45.658;9.272;2022-10-16T17:36:14;20.60;99.90
41168;DHT22;26906;45.658;9.272;2022-10-16T17:38:41;20.50;99.90
41168;DHT22;26906;45.658;9.272;2022-10-16T17:41:18;20.50;99.90
41168;DHT22;26906;45.658;9.272;2022-10-16T17:43:45;20.40;99.90
41168;DHT22;26906;45.658;9.272;2022-10-16T17:46:13;20.30;99.90
41168;DHT22;26906;45.658;9.272;2022-10-16T17:48:47;20.30;99.90
41168;DHT22;26906;45.658;9.272;2022-10-16T17:51:16;20.20;99.90
41168;DHT22;26906;45.658;9.272;2022-10-16T17:53:42;20.10;99.90
41168;DHT22;26906;45.658;9.272;2022-10-16T17:56:15;20.20;99.90
41168;DHT22;26906;45.658;9.272;2022-10-16T17:58:41;20.20;99.90
41168;DHT22;26906;45.658;9.272;2022-10-16T18:01:19;20.10;99.90
41168;DHT22;26906;45.658;9.272;2022-10-16T18:03:53;20.10;99.90
41168;DHT22;26906;45.658;9.272;2022-10-16T18:06:20;20.00;99.90
41168;DHT22;26906;45.658;9.272;2022-10-16T18:08:46;20.00;99.90
41168;DHT22;26906;45.658;9.272;2022-10-16T18:11:12;19.90;99.90
41168;DHT22;26906;45.658;9.272;2022-10-16T18:13:37;20.00;99.90
41168;DHT22;26906;45.658;9.272;2022-10-16T18:16:10;19.90;99.90
41168;DHT22;26906;45.658;9.272;2022-10-16T18:18:37;19.90;99.90
41168;DHT22;26906;45.658;9.272;2022-10-16T18:21:05;19.90;99.90
41168;DHT22;26906;45.658;9.272;2022-10-16T18:23:34;19.90;99.90
41168;DHT22;26906;45.658;9.272;2022-10-16T18:26:01;19.90;99.90
41168;DHT22;26906;45.658;9.272;2022-10-16T18:28:27;19.80;99.90
41168;DHT22;26906;45.658;9.272;2022-10-16T18:30:57;19.70;99.90
41168;DHT22;26906;45.658;9.272;2022-10-16T18:33:24;19.70;99.90
41168;DHT22;26906;45.658;9.272;2022-10-16T18:35:50;19.60;99.90
41168;DHT22;26906;45.658;9.272;2022-10-16T18:38:16;19.60;99.90
41168;DHT22;26906;45.658;9.272;2022-10-16T18:40:42;19.50;99.90
41168;DHT22;26906;45.658;9.272;2022-10-16T18:43:08;19.50;99.90
41168;DHT22;26906;45.658;9.272;2022-10-16T18:45:33;19.40;99.90
41168;DHT22;26906;45.658;9.272;2022-10-16T18:47:59;19.50;99.90
41168;DHT22;26906;45.658;9.272;2022-10-16T18:50:25;19.40;99.90
41168;DHT22;26906;45.658;9.272;2022-10-16T18:52:50;19.40;99.90
41168;DHT22;26906;45.658;9.272;2022-10-16T18:55:16;19.40;99.90
41168;DHT22;26906;45.658;9.272;2022-10-16T18:57:42;19.40;99.90
41168;DHT22;26906;45.658;9.272;2022-10-16T19:00:08;19.40;99.90
41168;DHT22;26906;45.658;9.272;2022-10-16T19:02:34;19.30;99.90
41168;DHT22;26906;45.658;9.272;2022-10-16T19:04:59;19.40;99.90
41168;DHT22;26906;45.658;9.272;2022-10-16T19:07:26;19.50;99.90
41168;DHT22;26906;45.658;9.272;2022-10-16T19:09:53;19.50;99.90
41168;DHT22;26906;45.658;9.272;2022-10-16T19:12:19;19.40;99.90
41168;DHT22;26906;45.658;9.272;2022-10-16T19:14:47;19.60;99.90
41168;DHT22;26906;45.658;9.272;2022-10-16T19:17:13;19.60;99.90
41168;DHT22;26906;45.658;9.272;2022-10-16T19:19:39;19.50;99.90
41168;DHT22;26906;45.658;9.272;2022-10-16T19:22:04;19.50;99.90
41168;DHT22;26906;45.658;9.272;2022-10-16T19:24:42;19.50;99.90
41168;DHT22;26906;45.658;9.272;2022-10-16T19:27:08;19.50;99.90
41168;DHT22;26906;45.658;9.272;2022-10-16T19:29:35;19.50;99.90
41168;DHT22;26906;45.658;9.272;2022-10-16T19:32:01;19.50;99.90
41168;DHT22;26906;45.658;9.272;2022-10-16T19:34:28;19.40;99.90
41168;DHT22;26906;45.658;9.272;2022-10-16T19:36:54;19.30;99.90
